sensor_id;sensor_type;location;lat;lon;timestamp;pressure;altitude;pressure_sealevel;temperature;humidity
43364;BME280;40636;52.424;-1.948;2023-01-28T00:01:17;101526.81;;;3.47;100.00
43364;BME280;40636;52.424;-1.948;2023-01-28T00:03:48;101525.97;;;3.46;100.00
43364;BME280;40636;52.424;-1.948;2023-01-28T00:06:16;101535.28;;;3.44;100.00
43364;BME280;40636;52.424;-1.948;2023-01-28T00:08:44;101522.41;;;3.46;100.00
43364;BME280;40636;52.424;-1.948;2023-01-28T00:11:12;101519.84;;;3.44;100.00
43364;BME280;40636;52.424;-1.948;2023-01-28T00:13:39;101518.84;;;3.45;100.00
43364;BME280;40636;52.424;-1.948;2023-01-28T00:16:06;101510.00;;;3.43;100.00
43364;BME280;40636;52.424;-1.948;2023-01-28T00:18:34;101514.41;;;3.44;100.00
43364;BME280;40636;52.424;-1.948;2023-01-28T00:21:07;101516.16;;;3.45;100.00
43364;BME280;40636;52.424;-1.948;2023-01-28T00:23:35;101510.88;;;3.44;100.00
43364;BME280;40636;52.424;-1.948;2023-01-28T00:26:04;101505.59;;;3.42;100.00
43364;BME280;40636;52.424;-1.948;2023-01-28T00:28:31;101502.72;;;3.44;100.00
43364;BME280;40636;52.424;-1.948;2023-01-28T00:31:05;101503.91;;;3.41;100.00
43364;BME280;40636;52.424;-1.948;2023-01-28T00:33:32;101501.22;;;3.41;100.00
43364;BME280;40636;52.424;-1.948;2023-01-28T00:35:59;101494.22;;;3.39;100.00
43364;BME280;40636;52.424;-1.948;2023-01-28T00:38:27;101497.25;;;3.36;100.00
43364;BME280;40636;52.424;-1.948;2023-01-28T00:40:54;101497.13;;;3.37;100.00
43364;BME280;40636;52.424;-1.948;2023-01-28T00:43:21;101490.50;;;3.40;100.00
43364;BME280;40636;52.424;-1.948;2023-01-28T00:45:48;101480.16;;;3.43;100.00
43364;BME280;40636;52.424;-1.948;2023-01-28T00:48:15;101484.56;;;3.44;100.00
43364;BME280;40636;52.424;-1.948;2023-01-28T00:50:43;101488.63;;;3.40;100.00
43364;BME280;40636;52.424;-1.948;2023-01-28T00:53:10;101480.50;;;3.40;100.00
43364;BME280;40636;52.424;-1.948;2023-01-28T00:55:37;101488.97;;;3.37;100.00
43364;BME280;40636;52.424;-1.948;2023-01-28T00:58:04;101489.66;;;3.39;100.00
43364;BME280;40636;52.424;-1.948;2023-01-28T01:00:31;101492.22;;;3.41;100.00
43364;BME280;40636;52.424;-1.948;2023-01-28T01:02:58;101483.56;;;3.37;100.00
43364;BME280;40636;52.424;-1.948;2023-01-28T01:05:25;101486.94;;;3.39;100.00
43364;BME280;40636;52.424;-1.948;2023-01-28T01:07:52;101484.22;;;3.39;100.00
43364;BME280;40636;52.424;-1.948;2023-01-28T01:10:18;101490.84;;;3.37;100.00
43364;BME280;40636;52.424;-1.948;2023-01-28T01:12:46;101489.66;;;3.39;100.00
43364;BME280;40636;52.424;-1.948;2023-01-28T01:15:13;101483.19;;;3.40;100.00
43364;BME280;40636;52.424;-1.948;2023-01-28T01:17:44;101484.22;;;3.39;100.00
43364;BME280;40636;52.424;-1.948;2023-01-28T01:20:14;101485.78;;;3.42;100.00
43364;BME280;40636;52.424;-1.948;2023-01-28T01:22:41;101474.41;;;3.46;100.00
43364;BME280;40636;52.424;-1.948;2023-01-28T01:25:08;101486.78;;;3.41;100.00
43364;BME280;40636;52.424;-1.948;2023-01-28T01:27:36;101477.44;;;3.43;100.00
43364;BME280;40636;52.424;-1.948;2023-01-28T01:30:03;101491.72;;;3.45;100.00
43364;BME280;40636;52.424;-1.948;2023-01-28T01:32:31;101479.16;;;3.52;100.00
43364;BME280;40636;52.424;-1.948;2023-01-28T01:34:58;101481.03;;;3.52;100.00
43364;BME280;40636;52.424;-1.948;2023-01-28T01:37:26;101488.84;;;3.55;100.00
43364;BME280;40636;52.424;-1.948;2023-01-28T01:39:52;101486.47;;;3.52;100.00
43364;BME280;40636;52.424;-1.948;2023-01-28T01:42:19;101486.28;;;3.53;100.00
43364;BME280;40636;52.424;-1.948;2023-01-28T01:45:11;101484.28;;;3.55;100.00
43364;BME280;40636;52.424;-1.948;2023-01-28T01:50:24;101485.13;;;3.56;100.00
43364;BME280;40636;52.424;-1.948;2023-01-28T01:52:55;101487.50;;;3.59;100.00
43364;BME280;40636;52.424;-1.948;2023-01-28T01:55:24;101498.50;;;3.58;100.00
43364;BME280;40636;52.424;-1.948;2023-01-28T01:57:54;101492.06;;;3.59;100.00
43364;BME280;40636;52.424;-1.948;2023-01-28T02:00:22;101490.38;;;3.58;100.00
43364;BME280;40636;52.424;-1.948;2023-01-28T02:02:50;101494.09;;;3.56;100.00
43364;BME280;40636;52.424;-1.948;2023-01-28T02:05:19;101487.66;;;3.58;100.00
43364;BME280;40636;52.424;-1.948;2023-01-28T02:07:49;101484.28;;;3.55;100.00
43364;BME280;40636;52.424;-1.948;2023-01-28T02:10:17;101482.59;;;3.54;100.00
43364;BME280;40636;52.424;-1.948;2023-01-28T02:12:52;101489.69;;;3.55;100.00
43364;BME280;40636;52.424;-1.948;2023-01-28T02:15:22;101485.97;;;3.56;100.00
43364;BME280;40636;52.424;-1.948;2023-01-28T02:17:50;101491.56;;;3.55;100.00
43364;BME280;40636;52.424;-1.948;2023-01-28T02:20:25;101488.69;;;3.56;100.00
43364;BME280;40636;52.424;-1.948;2023-01-28T02:28:22;101483.94;;;3.50;100.00
43364;BME280;40636;52.424;-1.948;2023-01-28T02:30:56;101491.22;;;3.50;100.00
43364;BME280;40636;52.424;-1.948;2023-01-28T02:36:25;101491.72;;;3.53;100.00
43364;BME280;40636;52.424;-1.948;2023-01-28T02:38:55;101489.69;;;3.55;100.00
43364;BME280;40636;52.424;-1.948;2023-01-28T02:41:32;101485.97;;;3.56;100.00
43364;BME280;40636;52.424;-1.948;2023-01-28T02:44:02;101481.22;;;3.50;100.00
43364;BME280;40636;52.424;-1.948;2023-01-28T02:49:40;101488.31;;;3.43;100.00
43364;BME280;40636;52.424;-1.948;2023-01-28T03:00:10;101461.97;;;3.19;100.00
43364;BME280;40636;52.424;-1.948;2023-01-28T03:02:51;101457.06;;;3.23;100.00
43364;BME280;40636;52.424;-1.948;2023-01-28T03:07:56;101455.50;;;3.12;100.00
43364;BME280;40636;52.424;-1.948;2023-01-28T03:10:25;101457.69;;;3.09;100.00
43364;BME280;40636;52.424;-1.948;2023-01-28T03:12:55;101457.84;;;3.07;100.00
43364;BME280;40636;52.424;-1.948;2023-01-28T03:15:50;101452.59;;;3.05;100.00
43364;BME280;40636;52.424;-1.948;2023-01-28T03:18:43;101454.63;;;3.03;100.00
43364;BME280;40636;52.424;-1.948;2023-01-28T03:21:35;101450.38;;;3.01;100.00
43364;BME280;40636;52.424;-1.948;2023-01-28T03:24:29;101453.63;;;3.04;100.00
43364;BME280;40636;52.424;-1.948;2023-01-28T03:27:28;101467.19;;;3.04;100.00
43364;BME280;40636;52.424;-1.948;2023-01-28T03:30:20;101456.47;;;3.03;100.00
43364;BME280;40636;52.424;-1.948;2023-01-28T03:33:06;101443.75;;;3.03;100.00
43364;BME280;40636;52.424;-1.948;2023-01-28T03:35:52;101456.84;;;3.08;100.00
43364;BME280;40636;52.424;-1.948;2023-01-28T03:38:39;101447.84;;;3.08;100.00
43364;BME280;40636;52.424;-1.948;2023-01-28T03:41:20;101453.28;;;3.08;100.00
43364;BME280;40636;52.424;-1.948;2023-01-28T03:43:48;101437.69;;;3.01;100.00
43364;BME280;40636;52.424;-1.948;2023-01-28T03:46:15;101447.31;;;3.04;100.00
43364;BME280;40636;52.424;-1.948;2023-01-28T03:48:44;101448.53;;;3.01;100.00
43364;BME280;40636;52.424;-1.948;2023-01-28T03:51:11;101447.81;;;2.99;100.00
43364;BME280;40636;52.424;-1.948;2023-01-28T03:53:38;101448.53;;;3.01;100.00
43364;BME280;40636;52.424;-1.948;2023-01-28T03:56:06;101467.00;;;3.06;100.00
43364;BME280;40636;52.424;-1.948;2023-01-28T03:58:34;101456.16;;;3.06;100.00
43364;BME280;40636;52.424;-1.948;2023-01-28T04:01:19;101467.19;;;3.04;100.00
43364;BME280;40636;52.424;-1.948;2023-01-28T04:03:46;101463.59;;;3.04;100.00
43364;BME280;40636;52.424;-1.948;2023-01-28T04:06:12;101470.56;;;3.07;100.00
43364;BME280;40636;52.424;-1.948;2023-01-28T04:08:39;101471.59;;;3.05;100.00
43364;BME280;40636;52.424;-1.948;2023-01-28T04:11:19;101463.59;;;3.04;100.00
43364;BME280;40636;52.424;-1.948;2023-01-28T04:13:47;101456.00;;;3.08;100.00
43364;BME280;40636;52.424;-1.948;2023-01-28T04:16:15;101444.13;;;3.09;100.00
43364;BME280;40636;52.424;-1.948;2023-01-28T04:18:43;101452.75;;;3.04;100.00
43364;BME280;40636;52.424;-1.948;2023-01-28T04:21:11;101464.81;;;3.10;100.00
43364;BME280;40636;52.424;-1.948;2023-01-28T04:23:38;101465.50;;;3.12;100.00
43364;BME280;40636;52.424;-1.948;2023-01-28T04:26:04;101464.66;;;3.11;100.00
43364;BME280;40636;52.424;-1.948;2023-01-28T04:28:31;101462.47;;;3.15;100.00
43364;BME280;40636;52.424;-1.948;2023-01-28T04:30:58;101458.38;;;3.11;100.00
43364;BME280;40636;52.424;-1.948;2023-01-28T04:33:25;101458.56;;;3.09;100.00
43364;BME280;40636;52.424;-1.948;2023-01-28T04:35:52;101463.81;;;3.11;100.00
43364;BME280;40636;52.424;-1.948;2023-01-28T04:38:19;101465.50;;;3.12;100.00
43364;BME280;40636;52.424;-1.948;2023-01-28T04:40:51;101465.84;;;3.17;100.00
43364;BME280;40636;52.424;-1.948;2023-01-28T04:43:18;101477.06;;;3.22;100.00
43364;BME280;40636;52.424;-1.948;2023-01-28T04:45:46;101467.44;;;3.27;100.00
43364;BME280;40636;52.424;-1.948;2023-01-28T04:48:14;101465.56;;;3.28;100.00
43364;BME280;40636;52.424;-1.948;2023-01-28T04:50:42;101474.38;;;3.30;100.00
43364;BME280;40636;52.424;-1.948;2023-01-28T04:53:10;101466.56;;;3.35;100.00
43364;BME280;40636;52.424;-1.948;2023-01-28T04:55:37;101476.44;;;3.36;100.00
43364;BME280;40636;52.424;-1.948;2023-01-28T04:58:04;101473.72;;;3.36;100.00
43364;BME280;40636;52.424;-1.948;2023-01-28T05:00:30;101471.69;;;3.38;100.00
43364;BME280;40636;52.424;-1.948;2023-01-28T05:02:57;101465.41;;;3.38;100.00
43364;BME280;40636;52.424;-1.948;2023-01-28T05:05:24;101471.69;;;3.38;100.00
43364;BME280;40636;52.424;-1.948;2023-01-28T05:07:52;101472.69;;;3.37;100.00
43364;BME280;40636;52.424;-1.948;2023-01-28T05:10:20;101475.56;;;3.36;100.00
43364;BME280;40636;52.424;-1.948;2023-01-28T05:12:48;101479.16;;;3.36;100.00
43364;BME280;40636;52.424;-1.948;2023-01-28T05:15:16;101472.00;;;3.35;100.00
43364;BME280;40636;52.424;-1.948;2023-01-28T05:17:43;101472.84;;;3.36;100.00
43364;BME280;40636;52.424;-1.948;2023-01-28T05:20:11;101472.69;;;3.37;100.00
43364;BME280;40636;52.424;-1.948;2023-01-28T05:22:39;101462.34;;;3.33;100.00
43364;BME280;40636;52.424;-1.948;2023-01-28T05:25:07;101466.56;;;3.35;100.00
43364;BME280;40636;52.424;-1.948;2023-01-28T05:27:34;101465.72;;;3.35;100.00
43364;BME280;40636;52.424;-1.948;2023-01-28T05:30:00;101473.03;;;3.34;100.00
43364;BME280;40636;52.424;-1.948;2023-01-28T05:32:27;101468.97;;;3.38;100.00
43364;BME280;40636;52.424;-1.948;2023-01-28T05:34:54;101469.63;;;3.40;100.00
43364;BME280;40636;52.424;-1.948;2023-01-28T05:37:21;101470.00;;;3.37;100.00
43364;BME280;40636;52.424;-1.948;2023-01-28T05:39:48;101470.66;;;3.39;100.00
43364;BME280;40636;52.424;-1.948;2023-01-28T05:42:14;101479.81;;;3.38;100.00
43364;BME280;40636;52.424;-1.948;2023-01-28T05:44:41;101480.66;;;3.39;100.00
43364;BME280;40636;52.424;-1.948;2023-01-28T05:47:09;101479.31;;;3.43;100.00
43364;BME280;40636;52.424;-1.948;2023-01-28T05:49:36;101480.16;;;3.43;100.00
43364;BME280;40636;52.424;-1.948;2023-01-28T05:52:02;101478.47;;;3.42;100.00
43364;BME280;40636;52.424;-1.948;2023-01-28T05:54:29;101475.41;;;3.37;100.00
43364;BME280;40636;52.424;-1.948;2023-01-28T05:56:56;101476.09;;;3.39;100.00
43364;BME280;40636;52.424;-1.948;2023-01-28T05:59:22;101470.50;;;3.41;100.00
43364;BME280;40636;52.424;-1.948;2023-01-28T06:01:49;101479.31;;;3.43;100.00
43364;BME280;40636;52.424;-1.948;2023-01-28T06:04:17;101475.94;;;3.41;100.00
43364;BME280;40636;52.424;-1.948;2023-01-28T06:06:45;101478.13;;;3.37;100.00
43364;BME280;40636;52.424;-1.948;2023-01-28T06:09:12;101482.72;;;3.37;100.00
43364;BME280;40636;52.424;-1.948;2023-01-28T06:11:39;101478.13;;;3.37;100.00
43364;BME280;40636;52.424;-1.948;2023-01-28T06:14:06;101482.72;;;3.37;100.00
43364;BME280;40636;52.424;-1.948;2023-01-28T06:16:33;101490.66;;;3.38;100.00
43364;BME280;40636;52.424;-1.948;2023-01-28T06:19:00;101489.34;;;3.42;100.00
43364;BME280;40636;52.424;-1.948;2023-01-28T06:21:27;101489.34;;;3.42;100.00
43364;BME280;40636;52.424;-1.948;2023-01-28T06:23:55;101482.88;;;3.43;100.00
43364;BME280;40636;52.424;-1.948;2023-01-28T06:26:22;101478.47;;;3.42;100.00
43364;BME280;40636;52.424;-1.948;2023-01-28T06:28:49;101478.47;;;3.42;100.00
43364;BME280;40636;52.424;-1.948;2023-01-28T06:31:16;101489.34;;;3.42;100.00
43364;BME280;40636;52.424;-1.948;2023-01-28T06:33:43;101481.00;;;3.44;100.00
43364;BME280;40636;52.424;-1.948;2023-01-28T06:36:09;101486.28;;;3.45;100.00
43364;BME280;40636;52.424;-1.948;2023-01-28T06:38:36;101492.72;;;3.44;100.00
43364;BME280;40636;52.424;-1.948;2023-01-28T06:41:03;101475.94;;;3.41;100.00
43364;BME280;40636;52.424;-1.948;2023-01-28T06:43:29;101478.47;;;3.42;100.00
43364;BME280;40636;52.424;-1.948;2023-01-28T06:45:57;101464.72;;;3.36;100.00
43364;BME280;40636;52.424;-1.948;2023-01-28T06:48:26;101478.28;;;3.36;100.00
43364;BME280;40636;52.424;-1.948;2023-01-28T06:50:53;101474.88;;;3.34;100.00
43364;BME280;40636;52.424;-1.948;2023-01-28T06:53:20;101474.56;;;3.37;100.00
43364;BME280;40636;52.424;-1.948;2023-01-28T06:55:47;101477.94;;;3.39;100.00
43364;BME280;40636;52.424;-1.948;2023-01-28T06:58:14;101480.50;;;3.40;100.00
43364;BME280;40636;52.424;-1.948;2023-01-28T07:00:40;101472.19;;;3.42;100.00
43364;BME280;40636;52.424;-1.948;2023-01-28T07:03:07;101466.41;;;3.45;100.00
43364;BME280;40636;52.424;-1.948;2023-01-28T07:05:34;101476.28;;;3.46;100.00
43364;BME280;40636;52.424;-1.948;2023-01-28T07:08:00;101490.00;;;3.44;100.00
43364;BME280;40636;52.424;-1.948;2023-01-28T07:10:28;101487.13;;;3.46;100.00
43364;BME280;40636;52.424;-1.948;2023-01-28T07:12:55;101488.84;;;3.47;100.00
43364;BME280;40636;52.424;-1.948;2023-01-28T07:15:21;101487.81;;;3.48;100.00
43364;BME280;40636;52.424;-1.948;2023-01-28T07:17:48;101495.09;;;3.47;100.00
43364;BME280;40636;52.424;-1.948;2023-01-28T07:20:15;101485.78;;;3.50;100.00
43364;BME280;40636;52.424;-1.948;2023-01-28T07:22:43;101483.75;;;3.52;100.00
43364;BME280;40636;52.424;-1.948;2023-01-28T07:25:12;101476.78;;;3.49;100.00
43364;BME280;40636;52.424;-1.948;2023-01-28T07:27:48;101476.63;;;3.51;100.00
43364;BME280;40636;52.424;-1.948;2023-01-28T07:30:15;101483.94;;;3.50;100.00
43364;BME280;40636;52.424;-1.948;2023-01-28T07:32:43;101474.94;;;3.50;100.00
43364;BME280;40636;52.424;-1.948;2023-01-28T07:35:10;101473.06;;;3.50;100.00
43364;BME280;40636;52.424;-1.948;2023-01-28T07:37:38;101473.75;;;3.52;100.00
43364;BME280;40636;52.424;-1.948;2023-01-28T07:40:05;101472.38;;;3.48;100.00
43364;BME280;40636;52.424;-1.948;2023-01-28T07:42:32;101474.94;;;3.50;100.00
43364;BME280;40636;52.424;-1.948;2023-01-28T07:44:58;101493.75;;;3.51;100.00
43364;BME280;40636;52.424;-1.948;2023-01-28T07:47:25;101489.84;;;3.54;100.00
43364;BME280;40636;52.424;-1.948;2023-01-28T07:49:52;101490.88;;;3.53;100.00
43364;BME280;40636;52.424;-1.948;2023-01-28T07:52:18;101491.56;;;3.55;100.00
43364;BME280;40636;52.424;-1.948;2023-01-28T07:54:45;101500.06;;;3.60;100.00
43364;BME280;40636;52.424;-1.948;2023-01-28T07:57:12;101497.34;;;3.60;100.00
43364;BME280;40636;52.424;-1.948;2023-01-28T07:59:39;101493.28;;;3.64;100.00
43364;BME280;40636;52.424;-1.948;2023-01-28T08:02:10;101487.00;;;3.64;100.00
43364;BME280;40636;52.424;-1.948;2023-01-28T08:04:37;101494.13;;;3.65;100.00
43364;BME280;40636;52.424;-1.948;2023-01-28T08:07:05;101494.78;;;3.67;100.00
43364;BME280;40636;52.424;-1.948;2023-01-28T08:09:33;101512.09;;;3.66;100.00
43364;BME280;40636;52.424;-1.948;2023-01-28T08:12:00;101513.47;;;3.70;100.00
43364;BME280;40636;52.424;-1.948;2023-01-28T08:14:28;101524.16;;;3.71;100.00
43364;BME280;40636;52.424;-1.948;2023-01-28T08:16:56;101522.28;;;3.72;100.00
43364;BME280;40636;52.424;-1.948;2023-01-28T08:19:23;101522.97;;;3.74;100.00
43364;BME280;40636;52.424;-1.948;2023-01-28T08:21:50;101513.16;;;3.73;100.00
43364;BME280;40636;52.424;-1.948;2023-01-28T08:24:16;101520.28;;;3.74;100.00
43364;BME280;40636;52.424;-1.948;2023-01-28T08:26:43;101517.38;;;3.75;100.00
43364;BME280;40636;52.424;-1.948;2023-01-28T08:29:11;101521.78;;;3.76;100.00
43364;BME280;40636;52.424;-1.948;2023-01-28T08:31:38;101523.31;;;3.79;100.00
43364;BME280;40636;52.424;-1.948;2023-01-28T08:34:05;101535.56;;;3.83;100.00
43364;BME280;40636;52.424;-1.948;2023-01-28T08:36:31;101533.50;;;3.85;100.00
43364;BME280;40636;52.424;-1.948;2023-01-28T08:38:58;101531.50;;;3.87;100.00
43364;BME280;40636;52.424;-1.948;2023-01-28T08:41:24;101533.84;;;3.90;100.00
43364;BME280;40636;52.424;-1.948;2023-01-28T08:43:51;101525.88;;;3.89;100.00
43364;BME280;40636;52.424;-1.948;2023-01-28T08:46:18;101522.00;;;3.91;100.00
43364;BME280;40636;52.424;-1.948;2023-01-28T08:48:44;101501.97;;;3.92;100.00
43364;BME280;40636;52.424;-1.948;2023-01-28T08:51:11;101507.38;;;3.92;100.00
43364;BME280;40636;52.424;-1.948;2023-01-28T08:53:39;101501.63;;;3.95;100.00
43364;BME280;40636;52.424;-1.948;2023-01-28T08:56:06;101507.72;;;3.97;100.00
43364;BME280;40636;52.424;-1.948;2023-01-28T08:58:33;101517.25;;;4.01;100.00
43364;BME280;40636;52.424;-1.948;2023-01-28T09:01:04;101513.50;;;4.02;100.00
43364;BME280;40636;52.424;-1.948;2023-01-28T09:03:32;101507.75;;;4.05;100.00
43364;BME280;40636;52.424;-1.948;2023-01-28T09:06:00;101505.69;;;4.07;100.00
43364;BME280;40636;52.424;-1.948;2023-01-28T09:08:27;101488.03;;;4.12;100.00
43364;BME280;40636;52.424;-1.948;2023-01-28T09:10:57;101479.69;;;4.13;100.00
43364;BME280;40636;52.424;-1.948;2023-01-28T09:13:24;101483.94;;;4.07;100.00
43364;BME280;40636;52.424;-1.948;2023-01-28T09:15:51;101484.81;;;4.08;100.00
43364;BME280;40636;52.424;-1.948;2023-01-28T09:18:18;101476.50;;;4.10;100.00
43364;BME280;40636;52.424;-1.948;2023-01-28T09:20:46;101481.09;;;4.09;100.00
43364;BME280;40636;52.424;-1.948;2023-01-28T09:23:13;101483.63;;;4.11;100.00
43364;BME280;40636;52.424;-1.948;2023-01-28T09:25:39;101490.41;;;4.15;100.00
43364;BME280;40636;52.424;-1.948;2023-01-28T09:28:06;101484.97;;;4.15;100.00
43364;BME280;40636;52.424;-1.948;2023-01-28T09:30:33;101485.50;;;4.18;100.00
43364;BME280;40636;52.424;-1.948;2023-01-28T09:33:03;101485.97;;;4.22;100.00
43364;BME280;40636;52.424;-1.948;2023-01-28T09:35:29;101482.94;;;4.25;100.00
43364;BME280;40636;52.424;-1.948;2023-01-28T09:37:57;101486.31;;;4.27;100.00
43364;BME280;40636;52.424;-1.948;2023-01-28T09:40:40;101478.16;;;4.27;100.00
43364;BME280;40636;52.424;-1.948;2023-01-28T09:45:56;101483.78;;;4.33;100.00
43364;BME280;40636;52.424;-1.948;2023-01-28T09:48:29;101476.28;;;4.36;100.00
43364;BME280;40636;52.424;-1.948;2023-01-28T09:50:59;101476.78;;;4.39;100.00
43364;BME280;40636;52.424;-1.948;2023-01-28T09:53:30;101475.09;;;4.46;100.00
43364;BME280;40636;52.424;-1.948;2023-01-28T09:56:05;101479.16;;;4.50;100.00
43364;BME280;40636;52.424;-1.948;2023-01-28T09:58:33;101474.72;;;4.57;100.00
43364;BME280;40636;52.424;-1.948;2023-01-28T10:06:41;101494.25;;;4.61;100.00
43364;BME280;40636;52.424;-1.948;2023-01-28T10:12:49;101483.19;;;4.63;100.00
43364;BME280;40636;52.424;-1.948;2023-01-28T10:17:49;101491.34;;;4.71;100.00
43364;BME280;40636;52.424;-1.948;2023-01-28T10:20:43;101482.13;;;4.80;100.00
43364;BME280;40636;52.424;-1.948;2023-01-28T10:23:55;101491.28;;;4.87;100.00
43364;BME280;40636;52.424;-1.948;2023-01-28T10:26:32;101498.94;;;4.92;100.00
43364;BME280;40636;52.424;-1.948;2023-01-28T10:29:09;101505.19;;;5.00;100.00
43364;BME280;40636;52.424;-1.948;2023-01-28T10:31:42;101492.59;;;4.99;100.00
43364;BME280;40636;52.424;-1.948;2023-01-28T10:34:11;101499.22;;;5.05;100.00
43364;BME280;40636;52.424;-1.948;2023-01-28T10:36:37;101500.69;;;5.16;100.00
43364;BME280;40636;52.424;-1.948;2023-01-28T10:39:04;101503.38;;;5.24;100.00
43364;BME280;40636;52.424;-1.948;2023-01-28T10:41:33;101509.84;;;5.23;100.00
43364;BME280;40636;52.424;-1.948;2023-01-28T10:44:00;101509.88;;;5.15;100.00
43364;BME280;40636;52.424;-1.948;2023-01-28T10:46:32;101507.31;;;5.13;100.00
43364;BME280;40636;52.424;-1.948;2023-01-28T10:51:38;101509.97;;;5.29;100.00
43364;BME280;40636;52.424;-1.948;2023-01-28T10:54:26;101514.88;;;5.34;100.00
43364;BME280;40636;52.424;-1.948;2023-01-28T10:57:02;101507.75;;;5.33;100.00
43364;BME280;40636;52.424;-1.948;2023-01-28T10:59:34;101503.63;;;5.45;100.00
43364;BME280;40636;52.424;-1.948;2023-01-28T11:05:15;101495.78;;;5.42;100.00
43364;BME280;40636;52.424;-1.948;2023-01-28T11:07:43;101492.72;;;5.45;100.00
43364;BME280;40636;52.424;-1.948;2023-01-28T11:12:56;101494.53;;;5.53;100.00
43364;BME280;40636;52.424;-1.948;2023-01-28T11:15:23;101495.34;;;5.62;100.00
43364;BME280;40636;52.424;-1.948;2023-01-28T11:17:59;101497.41;;;5.59;100.00
43364;BME280;40636;52.424;-1.948;2023-01-28T11:20:29;101507.56;;;5.66;100.00
43364;BME280;40636;52.424;-1.948;2023-01-28T11:22:57;101501.47;;;5.64;100.00
43364;BME280;40636;52.424;-1.948;2023-01-28T11:25:30;101493.66;;;5.60;100.00
43364;BME280;40636;52.424;-1.948;2023-01-28T11:27:59;101490.91;;;5.60;100.00
43364;BME280;40636;52.424;-1.948;2023-01-28T11:30:35;101501.28;;;5.65;100.00
43364;BME280;40636;52.424;-1.948;2023-01-28T11:33:13;101500.78;;;5.62;100.00
43364;BME280;40636;52.424;-1.948;2023-01-28T11:35:50;101492.81;;;5.60;100.00
43364;BME280;40636;52.424;-1.948;2023-01-28T11:38:20;101498.34;;;5.67;100.00
43364;BME280;40636;52.424;-1.948;2023-01-28T11:40:49;101508.41;;;5.66;100.00
43364;BME280;40636;52.424;-1.948;2023-01-28T11:43:20;101513.75;;;5.59;100.00
43364;BME280;40636;52.424;-1.948;2023-01-28T12:39:02;101462.09;;;5.43;100.00
43364;BME280;40636;52.424;-1.948;2023-01-28T12:41:42;101453.34;;;5.56;100.00
43364;BME280;40636;52.424;-1.948;2023-01-28T12:44:25;101454.19;;;5.56;100.00
43364;BME280;40636;52.424;-1.948;2023-01-28T12:47:01;101455.53;;;5.60;100.00
43364;BME280;40636;52.424;-1.948;2023-01-28T12:49:34;101442.56;;;5.63;100.00
43364;BME280;40636;52.424;-1.948;2023-01-28T12:52:21;101444.94;;;5.66;100.00
43364;BME280;40636;52.424;-1.948;2023-01-28T12:57:38;101430.97;;;5.69;100.00
43364;BME280;40636;52.424;-1.948;2023-01-28T13:00:18;101432.66;;;5.70;100.00
43364;BME280;40636;52.424;-1.948;2023-01-28T13:02:57;101421.44;;;5.65;100.00
43364;BME280;40636;52.424;-1.948;2023-01-28T13:05:33;101416.66;;;5.67;100.00
43364;BME280;40636;52.424;-1.948;2023-01-28T13:08:16;101422.09;;;5.67;100.00
43364;BME280;40636;52.424;-1.948;2023-01-28T13:10:46;101420.06;;;5.69;100.00
43364;BME280;40636;52.424;-1.948;2023-01-28T13:13:19;101410.94;;;5.76;100.00
43364;BME280;40636;52.424;-1.948;2023-01-28T13:15:48;101414.56;;;5.77;100.00
43364;BME280;40636;52.424;-1.948;2023-01-28T13:21:07;101416.25;;;5.78;100.00
43364;BME280;40636;52.424;-1.948;2023-01-28T13:23:43;101414.16;;;5.80;100.00
43364;BME280;40636;52.424;-1.948;2023-01-28T13:28:51;101406.28;;;5.85;100.00
43364;BME280;40636;52.424;-1.948;2023-01-28T13:31:21;101397.78;;;5.65;100.00
43364;BME280;40636;52.424;-1.948;2023-01-28T13:36:36;101395.50;;;5.77;100.00
43364;BME280;40636;52.424;-1.948;2023-01-28T13:39:03;101403.56;;;5.85;100.00
43364;BME280;40636;52.424;-1.948;2023-01-28T13:42:08;101396.13;;;5.79;100.00
43364;BME280;40636;52.424;-1.948;2023-01-28T13:44:36;101395.94;;;5.80;100.00
43364;BME280;40636;52.424;-1.948;2023-01-28T13:49:45;101400.19;;;5.83;100.00
43364;BME280;40636;52.424;-1.948;2023-01-28T13:52:16;101404.31;;;5.79;100.00
43364;BME280;40636;52.424;-1.948;2023-01-28T13:54:54;101399.22;;;5.76;100.00
43364;BME280;40636;52.424;-1.948;2023-01-28T14:17:43;101418.03;;;5.85;100.00
43364;BME280;40636;52.424;-1.948;2023-01-28T14:20:32;101420.91;;;5.92;100.00
43364;BME280;40636;52.424;-1.948;2023-01-28T14:23:14;101432.97;;;5.90;100.00
43364;BME280;40636;52.424;-1.948;2023-01-28T14:25:59;101433.50;;;5.93;100.00
43364;BME280;40636;52.424;-1.948;2023-01-28T14:28:34;101433.78;;;5.98;100.00
43364;BME280;40636;52.424;-1.948;2023-01-28T14:31:12;101430.41;;;5.96;100.00
43364;BME280;40636;52.424;-1.948;2023-01-28T14:33:42;101420.84;;;6.00;100.00
43364;BME280;40636;52.424;-1.948;2023-01-28T14:36:10;101428.03;;;5.93;100.00
43364;BME280;40636;52.424;-1.948;2023-01-28T14:38:40;101430.41;;;5.96;100.00
43364;BME280;40636;52.424;-1.948;2023-01-28T14:41:14;101431.81;;;5.92;100.00
43364;BME280;40636;52.424;-1.948;2023-01-28T14:43:47;101430.41;;;5.96;100.00
43364;BME280;40636;52.424;-1.948;2023-01-28T14:46:36;101435.88;;;5.96;100.00
43364;BME280;40636;52.424;-1.948;2023-01-28T14:49:27;101431.09;;;5.90;100.00
43364;BME280;40636;52.424;-1.948;2023-01-28T14:55:31;101422.94;;;5.90;100.00
43364;BME280;40636;52.424;-1.948;2023-01-28T14:57:44;101430.66;;;5.87;100.00
43364;BME280;40636;52.424;-1.948;2023-01-28T15:00:25;101422.94;;;5.90;100.00
43364;BME280;40636;52.424;-1.948;2023-01-28T15:02:52;101431.81;;;5.92;100.00
43364;BME280;40636;52.424;-1.948;2023-01-28T15:05:25;101432.97;;;5.90;100.00
43364;BME280;40636;52.424;-1.948;2023-01-28T15:07:53;101432.38;;;5.79;100.00
43364;BME280;40636;52.424;-1.948;2023-01-28T15:10:28;101437.59;;;5.89;100.00
43364;BME280;40636;52.424;-1.948;2023-01-28T15:12:57;101436.09;;;5.87;100.00
43364;BME280;40636;52.424;-1.948;2023-01-28T15:15:31;101430.56;;;5.95;100.00